Time,TemperatureF,DewpointF,PressureIn,WindDirection,WindDirectionDegrees,WindSpeedMPH,WindSpeedGustMPH,Humidity,HourlyPrecipIn,Conditions,Clouds,dailyrainin,SoftwareType,DateUTC
2014-03-18 03:42:00,31.0,24.0,29.88,SE,132,0.0,6.0,75,0.00,,,0.00,,2014-03-18 07:42:00,
2014-03-18 03:53:00,32.0,25.0,29.89,SE,126,0.0,4.0,75,0.00,,,0.00,,2014-03-18 07:53:00,
2014-03-18 04:22:00,31.0,24.0,29.89,SE,126,0.0,2.0,75,0.00,,,0.00,,2014-03-18 08:22:00,
2014-03-18 04:43:00,31.0,25.0,29.89,SE,144,0.0,4.0,77,0.00,,,0.00,,2014-03-18 08:43:00,
2014-03-18 04:52:00,31.0,25.0,29.89,SE,132,0.0,2.0,78,0.00,,,0.00,,2014-03-18 08:52:00,
2014-03-18 05:22:00,30.0,24.0,29.89,SE,132,0.0,2.0,79,0.00,,,0.00,,2014-03-18 09:22:00,
2014-03-18 05:43:00,30.0,25.0,29.90,SE,138,0.0,3.0,80,0.00,,,0.00,,2014-03-18 09:43:00,
2014-03-18 05:53:00,30.0,25.0,29.90,SE,137,0.0,4.0,81,0.00,,,0.00,,2014-03-18 09:53:00,
2014-03-18 06:23:00,30.0,25.0,29.91,SE,141,0.0,3.0,82,0.00,,,0.00,,2014-03-18 10:23:00,
2014-03-18 06:43:00,30.0,25.0,29.91,ESE,107,0.0,2.0,82,0.00,,,0.00,,2014-03-18 10:43:00,
2014-03-18 06:53:00,30.0,25.0,29.91,ESE,106,0.0,2.0,82,0.00,,,0.00,,2014-03-18 10:53:00,
2014-03-18 07:03:00,30.0,25.0,29.91,ESE,106,0.0,2.0,82,0.00,,,0.00,,2014-03-18 11:03:00,
2014-03-18 07:22:00,30.0,25.0,29.90,ESE,107,0.0,4.0,83,0.00,,,0.00,,2014-03-18 11:22:00,
2014-03-18 07:42:00,30.0,25.0,29.91,SE,133,0.0,3.0,83,0.00,,,0.00,,2014-03-18 11:42:00,
2014-03-18 07:52:00,29.0,25.0,29.91,ESE,106,0.0,3.0,83,0.00,,,0.00,,2014-03-18 11:52:00,
2014-03-18 08:22:00,29.0,25.0,29.92,ESE,108,0.0,2.0,85,0.00,,,0.00,,2014-03-18 12:22:00,
2014-03-18 08:42:00,29.0,25.0,29.92,SE,129,0.0,1.0,85,0.00,,,0.00,,2014-03-18 12:42:00,
2014-03-18 08:52:00,29.0,25.0,29.92,ESE,121,0.0,1.0,85,0.00,,,0.00,,2014-03-18 12:52:00,
2014-03-18 09:12:00,30.0,26.0,29.91,ESE,115,0.0,3.0,85,0.00,,,0.00,,2014-03-18 13:12:00,
2014-03-18 09:22:00,31.0,27.0,29.91,ESE,121,0.0,4.0,85,0.00,,,0.00,,2014-03-18 13:22:00,
2014-03-18 09:42:00,33.0,28.0,29.91,SSE,152,1.0,7.0,83,0.00,,,0.00,,2014-03-18 13:42:00,
2014-03-18 09:52:00,34.0,29.0,29.91,SE,144,0.0,8.0,81,0.00,,,0.00,,2014-03-18 13:52:00,
2014-03-18 10:22:00,35.0,30.0,29.93,ESE,123,3.0,7.0,82,0.00,,,0.00,,2014-03-18 14:22:00,
2014-03-18 10:52:00,37.0,32.0,29.93,ESE,120,4.0,10.0,82,0.00,,,0.00,,2014-03-18 14:52:00,
2014-03-18 11:22:00,38.0,33.0,29.95,SE,136,2.0,9.0,82,0.00,,,0.00,,2014-03-18 15:22:00,
2014-03-18 11:54:00,39.0,34.0,29.94,ESE,119,7.0,11.0,81,0.00,,,0.00,,2014-03-18 15:54:00,
2014-03-18 12:24:00,40.0,34.0,29.95,ESE,105,3.0,12.0,80,0.00,,,0.00,,2014-03-18 16:24:00,
2014-03-18 12:43:00,41.0,35.0,29.96,SE,145,3.0,12.0,80,0.00,,,0.00,,2014-03-18 16:43:00,
2014-03-18 12:53:00,41.0,35.0,29.95,South,180,4.0,13.0,79,0.00,,,0.00,,2014-03-18 16:53:00,
2014-03-18 13:22:00,44.0,37.0,29.94,SE,127,5.0,15.0,75,0.00,,,0.00,,2014-03-18 17:22:00,
2014-03-18 13:42:00,45.0,37.0,29.94,SSE,157,3.0,11.0,74,0.00,,,0.00,,2014-03-18 17:42:00,
2014-03-18 13:52:00,45.0,37.0,29.94,SSE,157,3.0,11.0,74,0.00,,,0.00,,2014-03-18 17:52:00,
2014-03-18 14:12:00,47.0,37.0,29.93,SSE,165,6.0,15.0,69,0.00,,,0.00,,2014-03-18 18:12:00,
2014-03-18 14:22:00,48.0,38.0,29.93,SSE,150,5.0,17.0,69,0.00,,,0.00,,2014-03-18 18:22:00,
2014-03-18 14:42:00,49.0,39.0,29.92,SE,142,4.0,13.0,68,0.00,,,0.00,,2014-03-18 18:42:00,
2014-03-18 14:52:00,49.0,39.0,29.91,SE,142,3.0,14.0,67,0.00,,,0.00,,2014-03-18 18:52:00,
2014-03-18 15:22:00,51.0,40.0,29.90,SE,146,7.0,14.0,65,0.00,,,0.00,,2014-03-18 19:22:00,
2014-03-18 15:42:00,51.0,40.0,29.89,SSE,150,3.0,8.0,65,0.00,,,0.00,,2014-03-18 19:42:00,
2014-03-18 15:52:00,51.0,40.0,29.89,SSE,150,3.0,8.0,65,0.00,,,0.00,,2014-03-18 19:52:00,
2014-03-18 16:11:00,52.0,40.0,29.88,SE,136,7.0,15.0,64,0.00,,,0.00,,2014-03-18 20:11:00,
2014-03-18 16:22:00,53.0,41.0,29.87,ESE,109,6.0,15.0,63,0.00,,,0.00,,2014-03-18 20:22:00,
2014-03-18 16:42:00,53.0,40.0,29.86,SE,144,3.0,10.0,62,0.00,,,0.00,,2014-03-18 20:42:00,
2014-03-18 16:52:00,53.0,40.0,29.86,SSE,157,6.0,16.0,62,0.00,,,0.00,,2014-03-18 20:52:00,
2014-03-18 17:11:00,53.0,40.0,29.85,SSW,199,4.0,13.0,61,0.00,,,0.00,,2014-03-18 21:11:00,
2014-03-18 17:21:00,53.0,40.0,29.84,ENE,77,3.0,14.0,61,0.00,,,0.00,,2014-03-18 21:21:00,
2014-03-18 17:43:00,53.0,40.0,29.84,SE,132,1.0,16.0,62,0.00,,,0.00,,2014-03-18 21:43:00,
2014-03-18 17:53:00,54.0,41.0,29.83,SSE,150,4.0,15.0,61,0.00,,,0.00,,2014-03-18 21:53:00,
2014-03-18 18:12:00,53.0,41.0,29.83,SE,143,3.0,16.0,63,0.00,,,0.00,,2014-03-18 22:12:00,
2014-03-18 18:23:00,52.0,41.0,29.82,SSE,148,7.0,19.0,65,0.00,,,0.00,,2014-03-18 22:23:00,
2014-03-18 18:43:00,50.0,40.0,29.82,ESE,120,6.0,18.0,68,0.00,,,0.00,,2014-03-18 22:43:00,
2014-03-18 18:53:00,50.0,41.0,29.81,SE,127,6.0,17.0,70,0.00,,,0.00,,2014-03-18 22:53:00,
2014-03-18 19:22:00,49.0,40.0,29.81,SE,138,8.0,18.0,72,0.00,,,0.00,,2014-03-18 23:22:00,
2014-03-18 19:53:00,48.0,40.0,29.80,ENE,65,1.0,10.0,74,0.00,,,0.00,,2014-03-18 23:53:00,
2014-03-18 20:12:00,48.0,40.0,29.79,SSE,148,8.0,14.0,75,0.00,,,0.00,,2014-03-19 00:12:00,
2014-03-18 20:22:00,48.0,41.0,29.77,SE,142,3.0,12.0,76,0.00,,,0.00,,2014-03-19 00:22:00,
2014-03-18 20:42:00,48.0,41.0,29.78,SE,130,4.0,9.0,77,0.00,,,0.00,,2014-03-19 00:42:00,
2014-03-18 20:52:00,47.0,41.0,29.76,SE,130,3.0,19.0,78,0.00,,,0.00,,2014-03-19 00:52:00,
2014-03-18 21:11:00,47.0,41.0,29.75,SE,127,5.0,12.0,79,0.00,,,0.00,,2014-03-19 01:11:00,
2014-03-18 21:21:00,47.0,41.0,29.75,SE,144,6.0,14.0,80,0.00,,,0.00,,2014-03-19 01:21:00,
2014-03-18 21:41:00,47.0,41.0,29.76,SE,140,5.0,14.0,80,0.00,,,0.00,,2014-03-19 01:41:00,
2014-03-18 21:52:00,46.0,41.0,29.76,SSE,150,3.0,12.0,81,0.00,,,0.00,,2014-03-19 01:52:00,
2014-03-18 22:11:00,46.0,41.0,29.76,South,170,4.0,14.0,81,0.00,,,0.00,,2014-03-19 02:11:00,
2014-03-18 22:22:00,47.0,42.0,29.76,SE,136,5.0,11.0,82,0.00,,,0.00,,2014-03-19 02:22:00,
2014-03-18 22:42:00,46.0,41.0,29.76,SE,136,5.0,17.0,82,0.00,,,0.00,,2014-03-19 02:42:00,
2014-03-18 22:52:00,46.0,41.0,29.78,SSE,155,5.0,21.0,82,0.00,,,0.00,,2014-03-19 02:52:00,
2014-03-18 23:21:00,47.0,42.0,29.81,South,188,0.0,8.0,83,0.00,,,0.00,,2014-03-19 03:21:00,
2014-03-18 23:43:00,47.0,42.0,29.80,South,188,1.0,10.0,83,0.00,,,0.00,,2014-03-19 03:43:00,
2014-03-18 23:53:00,47.0,42.0,29.80,SSE,147,4.0,7.0,83,0.00,,,0.00,,2014-03-19 03:53:00,